Apalachicola, FL

11:32 PM EST on March 03, 2015 (GMT -0500)
Franklin County Seafood Workers Task Force Apalachicola Office | Change Station
CLOSE
Current Station
Personal Weather Station
Location: Apalachicola, FL
Elevation: 43 ft
Nearby Weather Stations

Elev 43 ft 29.73 °N, 85.00 °W | Updated 12 minutes ago

Fog
Fog
61.3 °F
Feels Like 61.3 °F
N
0.0
Wind Variable Wind from WNW

Today
High -- | Low -- °F
--% Chance of Precip.
Yesterday
High -- | Low -- °F
Precip. -- in
7:03 AM 6:40 PM
Waxing Gibbous, 98% visible
Pressure 30.12 in
Visibility 0.2 miles
Clouds
Dew Point 61 °F
Humidity 99%
Rainfall 0.00 in
Snow Depth Not available.
UV Not available.
Pollen 8.40 out of 12
Air Quality Not available.
Flu Activity Not available.
METAR KAAF 040353Z AUTO 00000KT 1/4SM FG VV002 18/17 A3012

More Conditions Fewer Conditions

Pressure 30.12 in
Visibility 0.2 miles
Clouds
Dew Point 61 °F
Humidity 99%
Rainfall 0.00 in
Snow Depth Not available.
UV Not available.
Pollen 8.40 out of 12
Air Quality Not available.
Flu Activity Not available.
METAR KAAF 040353Z AUTO 00000KT 1/4SM FG VV002 18/17 A3012

More Conditions Fewer Conditions

10-Day Weather Forecast

Almanac

Astronomy

Mar. 03, 2015 Rise Set
Actual Time
Civil Twilight
Nautical Twilight
Astronomical Twilight
Moon
Length of Visible Light
Length of Day
Tomorrow will be .
, % of the Moon is Illuminated

Today's Extremes

State Highs State Lows

Community

WunderPhotos

Upload Photos

1,802,385 photos uploaded!

WunderBlogs® & News

Nearby

Air Quality

  Air Quality AQ Index Pollutant
Not available.

Snow Depth

Station Depth Elevation

Earthquake Activity

City Distance Mag. Time & Date
Minimum magnitude displayed is 2.5.

Coastal Water Temperatures

Place Temperature

Nearby Weather Stations